Flight Track Log - Related Links

Times and Time Zones

All times are in EDT time to prevent confusion due to time zone crossing. See the UAL1202 flight status page for this flight to view local times or setup timezone preferences in your user account.

Time Position Orientation Groundspeed Altitude Reporting Facility
EDT Latitude Longitude Course Direction KTS MPH feet Rate Location/Type
Mon 11:15:35 AM 37.6220 -122.3910 42° Northeast 32 37  Level FlightAware ADS-B
Mon 11:16:01 AM 37.6250 -122.3880 38° Northeast 32 37 20 Level FlightAware ADS-B
Mon 11:16:27 AM 37.6220 -122.3880 180° South 33 38 20 Level FlightAware ADS-B
Mon 11:16:57 AM 37.6210 -122.3850 113° Southeast 31 36 20 Level FlightAware ADS-B
Mon 11:17:24 AM 37.6200 -122.3830 122° Southeast 33 38 21 Level FlightAware ADS-B
Mon 11:18:05 AM 37.6190 -122.3800 113° Southeast 32 37 21 Level FlightAware ADS-B
Mon 11:18:49 AM 37.6150 -122.3780 158° South 31 36 22 Level FlightAware ADS-B
Mon 11:21:00 AM 37.8353 -122.1477 43° Northeast  Level FlightAware Approximate
Mon 11:22:00 AM 37.9323 -122.0345 43° Northeast  Level FlightAware Approximate
Mon 11:23:00 AM 38.0410 -121.9423 38° Northeast  Level FlightAware Approximate
Mon 11:24:00 AM 38.1416 -121.8390 28° Northeast  Level FlightAware Approximate
Mon 11:25:00 AM 38.2462 -121.7372 38° Northeast  Level FlightAware Approximate
Mon 11:26:00 AM 38.3499 -121.6334 38° Northeast  Level FlightAware Approximate
Mon 11:27:00 AM 38.4501 -121.5248 50° Northeast  Level FlightAware Approximate
Mon 11:28:00 AM 38.5275 -121.3885 55° Northeast  Level FlightAware Approximate
Mon 11:29:00 AM 38.6051 -121.2522 53° Northeast  Level FlightAware Approximate
Mon 11:30:00 AM 38.6850 -121.1178 53° Northeast  Level FlightAware Approximate
Mon 11:31:00 AM 38.7647 -120.9831 53° Northeast  Level FlightAware Approximate
Mon 11:34:00 AM 37.8824 -122.0929 43° Northeast  Level FlightAware Approximate
Mon 11:35:00 AM 37.9821 -122.0013 38° Northeast  Level FlightAware Approximate
Mon 11:35:07 AM 37.6070 -122.3830 38° Northeast 14 16  Level FlightAware ADS-B
Mon 11:37:00 AM 37.7906 -122.1928 38° Northeast  Level FlightAware Approximate
Mon 11:38:00 AM 37.8850 -122.0898 43° Northeast  Level FlightAware Approximate
Mon 11:38:36 AM 37.6060 -122.3830 43° Northeast 13 15  Level FlightAware ADS-B
Mon 11:39:21 AM 37.6070 -122.3810 58° Northeast 23 26 196 Level FlightAware ADS-B
Mon 11:40:23 AM 37.6080 -122.3800 38° Northeast 36 41 278 Level FlightAware ADS-B
Mon 11:40:40 AM 37.6120 -122.3770 31° Northeast 110 127 652 Level FlightAware ADS-B
Mon 11:41:09 AM 37.6322 -122.3630 29° Northeast 171 197 500 1,091 Climbing FlightAware ADS-B
Mon 11:41:13 AM 37.6344 -122.3610 36° Northeast 176 203 600 2,000 Climbing FlightAware ADS-B
Mon 11:41:21 AM 37.6389 -122.3540 51° Northeast 181 208 900 2,500 Climbing FlightAware ADS-B
Mon 11:41:25 AM 37.6412 -122.3500 54° Northeast 186 214 1,100 1,500 Climbing FlightAware ADS-B
Mon 11:41:41 AM 37.6493 -122.3360 54° Northeast 201 231 1,400 1,091 Climbing FlightAware ADS-B
Mon 11:41:58 AM 37.6597 -122.3190 52° Northeast 225 259 1,700 938 Climbing FlightAware ADS-B
Mon 11:42:13 AM 37.6702 -122.3020 52° Northeast 246 283 1,900 1,800 Climbing FlightAware ADS-B
Mon 11:42:28 AM 37.6810 -122.2850 51° Northeast 250 288 2,600 3,000 Climbing FlightAware ADS-B
Mon 11:42:43 AM 37.6922 -122.2680 50° Northeast 251 289 3,400 1,935 Climbing FlightAware ADS-B
Mon 11:42:59 AM 37.7045 -122.2500 49° Northeast 272 313 3,600 1,935 Climbing FlightAware ADS-B
Mon 11:43:14 AM 37.7174 -122.2310 49° Northeast 278 320 4,400 2,914 Climbing FlightAware ADS-B
Mon 11:43:34 AM 37.7348 -122.2070 47° Northeast 276 318 5,300 2,813 Climbing FlightAware ADS-B
Mon 11:43:46 AM 37.7467 -122.1940 41° Northeast 279 321 5,900 2,857 Climbing FlightAware ADS-B
Mon 11:43:55 AM 37.7577 -122.1880 23° Northeast 278 320 6,300 2,500 Climbing FlightAware ADS-B
Mon 11:43:58 AM 37.7615 -122.1870 12° North 278 320 6,400 2,250 Climbing FlightAware ADS-B
Mon 11:44:03 AM 37.7676 -122.1850 15° North 278 320 6,600 2,455 Climbing FlightAware ADS-B
Mon 11:44:20 AM 37.7893 -122.1820 North 281 323 7,300 2,400 Climbing FlightAware ADS-B
Mon 11:44:33 AM 37.8060 -122.1790 North 286 329 7,800 2,400 Climbing FlightAware ADS-B
Mon 11:44:40 AM 37.8154 -122.1760 14° North 290 334 8,100 2,727 Climbing FlightAware ADS-B
Mon 11:44:44 AM 37.8200 -122.1730 27° Northeast 292 336 8,300 2,400 Climbing FlightAware ADS-B
Mon 11:44:50 AM 37.8271 -122.1690 24° Northeast 296 341 8,500 2,000 Climbing FlightAware ADS-B
Mon 11:44:53 AM 37.8305 -122.1660 35° Northeast 297 342 8,600 3,000 Climbing FlightAware ADS-B
Mon 11:44:56 AM 37.8345 -122.1620 38° Northeast 298 343 8,800 2,526 Climbing FlightAware ADS-B
Mon 11:45:12 AM 37.8512 -122.1450 39° Northeast 301 346 9,400 2,333 Climbing FlightAware ADS-B
Mon 11:45:32 AM 37.8734 -122.1220 39° Northeast 305 351 10,200 2,353 Climbing FlightAware ADS-B
Mon 11:46:03 AM 37.9079 -122.0880 38° Northeast 313 360 11,400 1,672 Climbing FlightAware ADS-B
Mon 11:46:33 AM 37.9443 -122.0520 38° Northeast 345 397 11,900 1,500 Climbing FlightAware ADS-B
Mon 11:47:03 AM 37.9840 -122.0130 38° Northeast 359 413 12,900 1,787 Climbing FlightAware ADS-B
Mon 11:48:07 AM 38.0460 -121.9510 38° Northeast 369 425 14,700 2,092 Climbing FlightAware ADS-B
Mon 11:48:52 AM 38.1260 -121.8720 38° Northeast 381 438 16,700 2,427 Climbing FlightAware ADS-B
Mon 11:49:36 AM 38.1920 -121.8060 38° Northeast 389 448 18,300 1,906 Climbing FlightAware ADS-B
Mon 11:50:17 AM 38.2510 -121.7460 39° Northeast 401 461 19,400 1,724 Climbing FlightAware ADS-B
Mon 11:51:03 AM 38.3190 -121.6780 38° Northeast 410 472 20,800 1,744 Climbing FlightAware ADS-B
Mon 11:51:43 AM 38.3790 -121.6170 39° Northeast 417 480 21,900 1,537 Climbing FlightAware ADS-B
Mon 11:52:25 AM 38.4410 -121.5500 40° Northeast 428 493 22,900 1,429 Climbing FlightAware ADS-B
Mon 11:53:07 AM 38.4940 -121.4660 51° Northeast 438 504 23,900 1,256 Climbing FlightAware ADS-B
Mon 11:53:51 AM 38.5480 -121.3740 53° Northeast 448 516 24,700 1,200 Climbing FlightAware ADS-B
Mon 11:54:27 AM 38.5920 -121.2980 53° Northeast 452 520 25,500 1,390 Climbing FlightAware ADS-B
Mon 11:55:13 AM 38.6500 -121.1990 53° Northeast 456 525 26,600 1,395 Climbing FlightAware ADS-B
Mon 11:55:53 AM 38.7010 -121.1090 54° Northeast 459 528 27,500 1,271 Climbing FlightAware ADS-B
Mon 11:56:38 AM 38.7570 -121.0130 53° Northeast 462 532 28,400 1,071 Climbing FlightAware ADS-B
Mon 11:57:17 AM 38.8070 -120.9260 54° Northeast 468 539 29,000 815 Climbing FlightAware ADS-B
Mon 11:57:59 AM 38.8620 -120.8310 53° Northeast 479 551 29,500 750 Climbing FlightAware ADS-B
Mon 11:58:45 AM 38.9220 -120.7270 53° Northeast 486 559 30,100 837 Climbing FlightAware ADS-B
Mon 11:59:25 AM 38.9770 -120.6330 53° Northeast 489 563 30,700 825 Climbing FlightAware ADS-B
Mon 12:00:05 PM 39.0310 -120.5380 54° Northeast 492 566 31,200 1,000 Climbing FlightAware ADS-B
Mon 12:00:49 PM 39.0890 -120.4370 53° Northeast 487 560 32,100 1,125 Climbing FlightAware ADS-B
Mon 12:01:25 PM 39.1260 -120.3730 53° Northeast 485 558 32,700 574 Climbing FlightAware ADS-B
Mon 12:02:23 PM 39.2120 -120.2210 54° Northeast 477 549 33,000 153 Climbing FlightAware ADS-B
Mon 12:03:23 PM 39.2660 -120.1060 59° Northeast 482 555 33,000  Level FlightAware ADS-B
Mon 12:04:02 PM 39.3090 -120.0050 61° Northeast 482 555 33,000  Level FlightAware ADS-B
Mon 12:04:43 PM 39.3510 -119.9060 61° Northeast 483 556 33,000  Level FlightAware ADS-B
Mon 12:05:29 PM 39.3980 -119.7980 61° Northeast 483 556 33,000  Level FlightAware ADS-B
Mon 12:06:09 PM 39.4500 -119.6780 61° Northeast 483 556 33,000  Level FlightAware ADS-B
Mon 12:06:51 PM 39.4920 -119.5800 61° Northeast 483 556 33,000  Level FlightAware ADS-B
Mon 12:07:31 PM 39.5300 -119.4910 61° Northeast 482 555 33,000  Level FlightAware ADS-B
Mon 12:08:09 PM 39.5680 -119.4010 61° Northeast 483 556 33,000  Level FlightAware ADS-B
Mon 12:09:11 PM 39.6360 -119.2410 61° Northeast 483 556 33,000  Level FlightAware ADS-B
Mon 12:09:48 PM 39.6700 -119.1610 61° Northeast 483 556 33,000  Level FlightAware ADS-B
Mon 12:10:33 PM 39.7120 -119.0640 61° Northeast 483 556 33,000  Level FlightAware ADS-B
Mon 12:11:25 PM 39.7600 -118.9510 61° Northeast 483 556 33,000  Level FlightAware ADS-B
Mon 12:12:13 PM 39.8040 -118.8480 61° Northeast 483 556 33,000  Level FlightAware ADS-B
Mon 12:12:50 PM 39.8380 -118.7680 61° Northeast 483 556 33,000  Level FlightAware ADS-B
Mon 12:13:39 PM 39.8830 -118.6610 61° Northeast 483 556 33,000  Level FlightAware ADS-B
Mon 12:14:15 PM 39.9160 -118.5840 61° Northeast 483 556 33,000  Level FlightAware ADS-B
Mon 12:15:03 PM 39.9600 -118.4800 61° Northeast 483 556 33,000  Level FlightAware ADS-B
Mon 12:15:40 PM 39.9940 -118.3990 61° Northeast 483 556 33,000  Level FlightAware ADS-B
Mon 12:16:27 PM 40.0380 -118.2970 61° Northeast 483 556 33,000  Level FlightAware ADS-B
Mon 12:17:05 PM 40.0730 -118.2150 61° Northeast 483 556 33,000  Level FlightAware ADS-B
Mon 12:18:19 PM 40.1410 -118.0540 61° Northeast 483 556 33,000  Level FlightAware ADS-B
Mon 12:18:56 PM 40.2644 -117.7156 61° Northeast 483 556 33,000  Level Oakland Center
Mon 12:19:57 PM 40.3233 -117.5686 62° Northeast 477 549 33,000  Level Oakland Center
Mon 12:20:21 PM 40.3531 -117.4953 62° Northeast 476 548 33,000  Level Salt Lake Center
Mon 12:21:23 PM 40.4119 -117.3472 62° Northeast 476 548 33,000  Level Salt Lake Center
Mon 12:22:25 PM 40.4811 -117.1725 62° Northeast 478 550 33,000  Level Salt Lake Center
Mon 12:23:27 PM 40.5417 -117.0236 62° Northeast 477 549 33,000  Level Salt Lake Center
Mon 12:24:29 PM 40.5994 -116.8711 63° Northeast 477 549 33,000  Level Salt Lake Center
Mon 12:25:31 PM 40.6667 -116.6967 63° Northeast 474 545 33,000  Level Salt Lake Center
Mon 12:26:33 PM 40.7244 -116.5475 63° Northeast 475 547 33,000  Level Salt Lake Center
Mon 12:27:35 PM 40.7917 -116.3750 63° Northeast 473 544 33,000  Level Salt Lake Center
Mon 12:28:37 PM 40.8497 -116.2261 63° Northeast 475 547 33,000  Level Salt Lake Center
Mon 12:29:39 PM 40.9156 -116.0511 63° Northeast 476 548 33,000  Level Salt Lake Center
Mon 12:30:41 PM 40.9711 -115.9022 64° Northeast 472 543 33,000  Level Salt Lake Center
Mon 12:31:43 PM 41.0367 -115.7283 63° Northeast 473 544 33,000  Level Salt Lake Center
Mon 12:32:45 PM 41.0919 -115.5797 64° Northeast 470 541 33,000  Level Salt Lake Center
Mon 12:33:47 PM 41.1478 -115.4308 63° Northeast 471 542 33,000  Level Salt Lake Center
Mon 12:34:49 PM 41.2117 -115.2572 64° Northeast 469 540 33,000  Level Salt Lake Center
Mon 12:35:51 PM 41.2661 -115.1097 64° Northeast 465 535 33,000  Level Salt Lake Center
Mon 12:36:53 PM 41.3306 -114.9356 64° Northeast 469 540 33,000  Level Salt Lake Center
Mon 12:37:55 PM 41.3858 -114.7828 64° Northeast 467 537 33,000  Level Salt Lake Center
Mon 12:38:57 PM 41.4428 -114.6261 64° Northeast 471 542 33,000  Level Salt Lake Center
Mon 12:39:59 PM 41.4983 -114.4706 64° Northeast 468 539 33,000  Level Salt Lake Center
Mon 12:41:02 PM 41.5661 -114.2808 64° Northeast 471 542 33,000  Level Salt Lake Center
Mon 12:46:45 PM 41.8850 -113.3770 64° Northeast 468 539 33,000  Level FlightAware ADS-B
Mon 12:47:30 PM 41.9180 -113.2820 65° Northeast 468 539 33,000  Level FlightAware ADS-B
Mon 12:48:09 PM 41.9480 -113.1950 65° Northeast 468 539 33,000  Level FlightAware ADS-B
Mon 12:48:47 PM 41.9780 -113.1090 65° Northeast 468 539 33,000  Level FlightAware ADS-B
Mon 12:49:24 PM 42.0070 -113.0260 65° Northeast 468 539 33,000  Level FlightAware ADS-B
Mon 12:50:10 PM 42.0420 -112.9230 65° Northeast 468 539 33,000  Level FlightAware ADS-B
Mon 12:50:48 PM 42.0720 -112.8380 65° Northeast 468 539 33,000  Level FlightAware ADS-B
Mon 12:51:34 PM 42.1080 -112.7340 65° Northeast 468 539 33,000  Level FlightAware ADS-B
Mon 12:52:10 PM 42.1360 -112.6530 65° Northeast 468 539 33,000  Level FlightAware ADS-B
Mon 12:52:59 PM 42.1740 -112.5430 65° Northeast 468 539 33,000  Level FlightAware ADS-B
Mon 12:53:35 PM 42.2020 -112.4620 65° Northeast 468 539 33,000  Level FlightAware ADS-B
Mon 12:54:23 PM 42.2390 -112.3540 65° Northeast 468 539 33,000  Level FlightAware ADS-B
Mon 12:54:59 PM 42.2670 -112.2730 65° Northeast 468 539 33,000  Level FlightAware ADS-B
Mon 12:55:48 PM 42.3050 -112.1620 65° Northeast 468 539 33,000  Level FlightAware ADS-B
Mon 12:56:23 PM 42.3320 -112.0830 65° Northeast 468 539 33,000  Level FlightAware ADS-B
Mon 12:57:34 PM 42.4692 -111.6186 65° Northeast 482 555 33,000  Level Salt Lake Center
Mon 12:58:36 PM 42.5228 -111.4525 66° East 482 555 33,000  Level Salt Lake Center
Mon 12:59:38 PM 42.5750 -111.2850 67° East 483 556 33,000  Level Salt Lake Center
Mon 01:00:40 PM 42.6389 -111.0844 67° East 481 554 33,000  Level Salt Lake Center
Mon 01:01:42 PM 42.6861 -110.9308 67° East 482 555 33,000  Level Salt Lake Center
Mon 01:02:44 PM 42.7428 -110.7456 67° East 489 563 33,000  Level Salt Lake Center
Mon 01:03:46 PM 42.7928 -110.5853 67° East 485 558 33,000  Level Salt Lake Center
Mon 01:04:48 PM 42.8497 -110.4003 67° East 480 552 33,000  Level Salt Lake Center
Mon 01:05:50 PM 42.8983 -110.2375 68° East 483 556 33,000  Level Salt Lake Center
Mon 01:06:52 PM 42.9556 -110.0483 67° East 484 557 33,000  Level Salt Lake Center
Mon 01:07:55 PM 43.0047 -109.8856 68° East 484 557 33,000  Level Salt Lake Center
Mon 01:08:57 PM 43.0614 -109.6986 67° East 480 552 33,000  Level Salt Lake Center
Mon 01:09:59 PM 43.1086 -109.5361 68° East 481 554 33,000  Level Salt Lake Center
Mon 01:11:01 PM 43.1650 -109.3469 68° East 481 554 33,000  Level Salt Lake Center
Mon 01:12:03 PM 43.2125 -109.1883 68° East 475 547 33,000  Level Salt Lake Center
Mon 01:13:05 PM 43.2667 -108.9953 69° East 482 555 33,000  Level Salt Lake Center
Mon 01:14:07 PM 43.3139 -108.8317 68° East 483 556 33,000  Level Salt Lake Center
Mon 01:15:09 PM 43.3683 -108.6383 69° East 486 559 33,000  Level Salt Lake Center
Mon 01:16:11 PM 43.4147 -108.4731 69° East 485 558 33,000  Level Salt Lake Center
Mon 01:17:13 PM 43.4656 -108.2792 70° East 485 558 33,000  Level Salt Lake Center
Mon 01:18:15 PM 43.4864 -108.1022 81° East 489 563 33,000  Level Salt Lake Center
Mon 01:19:17 PM 43.5106 -107.8969 81° East 490 564 33,000  Level Salt Lake Center
Mon 01:20:19 PM 43.5311 -107.7194 81° East 492 566 33,000  Level Salt Lake Center
Mon 01:21:21 PM 43.5539 -107.5153 81° East 485 558 33,000  Level Salt Lake Center
Mon 01:22:23 PM 43.5744 -107.3394 81° East 487 560 33,000  Level Salt Lake Center
Mon 01:23:25 PM 43.5972 -107.1342 81° East 486 559 33,000  Level Salt Lake Center
Mon 01:23:53 PM 43.6033 -107.0753 82° East 485 558 33,000  Level Denver Center
Mon 01:24:55 PM 43.6261 -106.8731 81° East 488 562 33,000  Level Denver Center
Mon 01:25:57 PM 43.6483 -106.6681 81° East 484 557 33,000  Level Denver Center
Mon 01:26:59 PM 43.6667 -106.4914 82° East 484 557 33,000  Level Denver Center
Mon 01:28:01 PM 43.6883 -106.2861 82° East 483 556 33,000  Level Denver Center
Mon 01:29:03 PM 43.7067 -106.1072 82° East 488 562 33,000  Level Denver Center
Mon 01:30:05 PM 43.7244 -105.9308 82° East 484 557 33,000  Level Denver Center
Mon 01:31:07 PM 43.7453 -105.7225 82° East 487 560 33,000  Level Denver Center
Mon 01:32:09 PM 43.7625 -105.5447 82° East 487 560 33,000  Level Denver Center
Mon 01:33:12 PM 43.7822 -105.3364 82° East 488 562 33,000  Level Denver Center
Mon 01:34:14 PM 43.7986 -105.1578 83° East 488 562 33,000  Level Denver Center
Mon 01:35:16 PM 43.8178 -104.9483 83° East 488 562 33,000  Level Denver Center
Mon 01:36:18 PM 43.8347 -104.7672 83° East 492 566 33,000  Level Denver Center
Mon 01:37:20 PM 43.8522 -104.5597 83° East 486 559 33,000  Level Denver Center
Mon 01:38:22 PM 43.8919 -104.3914 72° East 481 554 33,000  Level Denver Center
Mon 01:39:24 PM 43.9522 -104.2075 65° Northeast 467 537 33,000  Level Denver Center
Mon 01:40:26 PM 44.0056 -104.0483 65° Northeast 472 543 33,000  Level Denver Center
Mon 01:41:28 PM 44.0572 -103.8889 66° East 472 543 33,000  Level Denver Center
Mon 01:42:30 PM 44.1206 -103.7036 64° Northeast 474 545 33,000  Level Denver Center
Mon 01:43:32 PM 44.1733 -103.5436 65° Northeast 474 545 33,000  Level Denver Center
Mon 01:44:34 PM 44.2364 -103.3569 65° Northeast 474 545 33,000  Level Denver Center
Mon 01:45:36 PM 44.2714 -103.1689 75° East 488 562 33,000  Level Denver Center
Mon 01:46:39 PM 44.2533 -102.9769 97° East 500 575 33,000  Level Denver Center
Mon 01:47:41 PM 44.2386 -102.7828 96° East 504 580 33,000  Level Denver Center
Mon 01:48:43 PM 44.2242 -102.5881 96° East 505 581 33,000  Level Denver Center
Mon 01:49:45 PM 44.2089 -102.3933 96° East 507 583 33,000  Level Denver Center
Mon 01:50:47 PM 44.1894 -102.1589 97° East 509 586 33,000  Level Denver Center
Mon 01:51:49 PM 44.1742 -101.9644 96° East 508 585 33,000  Level Denver Center
Mon 01:52:51 PM 44.1553 -101.7694 98° East 508 585 33,000  Level Denver Center
Mon 01:53:53 PM 44.1394 -101.5764 96° East 506 582 33,000  Level Denver Center
Mon 01:54:55 PM 44.1231 -101.3839 97° East 504 580 33,000  Level Denver Center
Mon 01:55:57 PM 44.1078 -101.1922 96° East 502 578 33,000  Level Denver Center
Mon 01:56:46 PM 44.0967 -101.0397 96° East 503 579 33,000  Level Minneapolis Center
Mon 01:57:48 PM 44.0783 -100.8128 96° East 500 575 33,000  Level Minneapolis Center
Mon 01:58:50 PM 44.0614 -100.6208 97° East 501 577 33,000  Level Minneapolis Center
Mon 01:59:56 PM 44.0428 -100.4272 98° East 506 582 33,000  Level Minneapolis Center
Mon 02:00:58 PM 44.0261 -100.2342 97° East 507 583 33,000  Level Minneapolis Center
Mon 02:02:00 PM 44.0033 -100.0033 98° East 507 583 33,000  Level Minneapolis Center
Mon 02:03:02 PM 43.9853 -99.8100 97° East 508 585 33,000  Level Minneapolis Center
Mon 02:04:04 PM 43.9661 -99.6178 98° East 507 583 33,000  Level Minneapolis Center
Mon 02:05:19 PM 43.9439 -99.3864 98° East 507 583 33,000  Level Minneapolis Center
Mon 02:06:21 PM 43.9239 -99.1956 98° East 505 581 33,000  Level Minneapolis Center
Mon 02:07:35 PM 43.8997 -98.9653 98° East 505 581 33,000  Level Minneapolis Center
Mon 02:08:38 PM 43.8764 -98.7342 98° East 507 583 33,000  Level Minneapolis Center
Mon 02:14:38 PM 43.7440 -97.5580 98° East 517 595 33,000  Level FlightAware ADS-B
Mon 02:15:14 PM 43.7300 -97.4440 100° East 519 597 33,000  Level FlightAware ADS-B
Mon 02:16:00 PM 43.7120 -97.2880 99° East 519 597 33,000  Level FlightAware ADS-B
Mon 02:16:44 PM 43.6940 -97.1450 100° East 518 596 33,000  Level FlightAware ADS-B
Mon 02:17:25 PM 43.6780 -97.0150 100° East 517 595 33,000  Level FlightAware ADS-B
Mon 02:18:06 PM 43.6610 -96.8770 100° East 516 594 33,000  Level FlightAware ADS-B
Mon 02:18:50 PM 43.6440 -96.7380 100° East 514 592 33,000  Level FlightAware ADS-B
Mon 02:19:32 PM 43.6240 -96.6050 102° East 512 589 33,000  Level FlightAware ADS-B
Mon 02:20:14 PM 43.6040 -96.4690 101° East 511 588 33,000  Level FlightAware ADS-B
Mon 02:20:57 PM 43.5840 -96.3330 101° East 510 587 33,000  Level FlightAware ADS-B
Mon 02:21:37 PM 43.5650 -96.2090 102° East 509 586 33,000  Level FlightAware ADS-B
Mon 02:22:19 PM 43.5440 -96.0720 102° East 511 588 33,000  Level FlightAware ADS-B
Mon 02:23:03 PM 43.5230 -95.9310 102° East 513 590 33,000  Level FlightAware ADS-B
Mon 02:23:41 PM 43.5050 -95.8110 102° East 514 592 33,000  Level FlightAware ADS-B
Mon 02:24:27 PM 43.4830 -95.6640 102° East 514 592 33,000  Level FlightAware ADS-B
Mon 02:25:07 PM 43.4630 -95.5380 102° East 514 592 33,000  Level FlightAware ADS-B
Mon 02:25:49 PM 43.4420 -95.4030 102° East 514 592 33,000  Level FlightAware ADS-B
Mon 02:26:33 PM 43.4190 -95.2600 102° East 512 589 33,000  Level FlightAware ADS-B
Mon 02:27:17 PM 43.3970 -95.1210 102° East 513 590 33,000  Level FlightAware ADS-B
Mon 02:27:55 PM 43.3770 -95.0000 103° East 512 589 33,000  Level FlightAware ADS-B
Mon 02:28:41 PM 43.3530 -94.8530 103° East 512 589 33,000  Level FlightAware ADS-B
Mon 02:29:21 PM 43.3340 -94.7320 102° East 511 588 33,000  Level FlightAware ADS-B
Mon 02:30:05 PM 43.3110 -94.5920 103° East 510 587 33,000  Level FlightAware ADS-B
Mon 02:30:45 PM 43.2890 -94.4630 103° East 510 587 33,000  Level FlightAware ADS-B
Mon 02:31:23 PM 43.2700 -94.3450 102° East 510 587 33,000  Level FlightAware ADS-B
Mon 02:32:11 PM 43.2440 -94.1900 103° East 509 586 33,000  Level FlightAware ADS-B
Mon 02:32:51 PM 43.2230 -94.0680 103° East 510 587 33,000  Level FlightAware ADS-B
Mon 02:33:31 PM 43.2010 -93.9430 104° East 510 587 33,000  Level FlightAware ADS-B
Mon 02:34:16 PM 43.1770 -93.8040 103° East 510 587 33,000  Level FlightAware ADS-B
Mon 02:34:55 PM 43.1560 -93.6800 103° East 510 587 33,000  Level FlightAware ADS-B
Mon 02:35:37 PM 43.1330 -93.5480 103° East 512 589 33,000  Level FlightAware ADS-B
Mon 02:36:21 PM 43.1090 -93.4110 103° East 513 590 33,000  Level FlightAware ADS-B
Mon 02:37:03 PM 43.0810 -93.2770 106° East 514 592 33,000  Level FlightAware ADS-B
Mon 02:37:45 PM 43.0490 -93.1500 109° East 515 593 33,000  Level FlightAware ADS-B
Mon 02:38:24 PM 43.0190 -93.0310 109° East 516 594 33,000  Level FlightAware ADS-B
Mon 02:39:09 PM 42.9840 -92.8930 109° East 517 595 33,000  Level FlightAware ADS-B
Mon 02:39:49 PM 42.9530 -92.7690 109° East 517 595 33,000  Level FlightAware ADS-B
Mon 02:40:35 PM 42.9150 -92.6230 110° East 517 595 33,000  Level FlightAware ADS-B
Mon 02:41:15 PM 42.8840 -92.5030 109° East 515 593 33,000  Level FlightAware ADS-B
Mon 02:41:43 PM 42.8610 -92.4150 110° East 514 592 33,000  Level FlightAware ADS-B
Mon 02:42:27 PM 42.8270 -92.2820 109° East 514 592 33,000  Level FlightAware ADS-B
Mon 02:43:07 PM 42.7950 -92.1600 110° East 513 590 33,000  Level FlightAware ADS-B
Mon 02:43:47 PM 42.7630 -92.0400 110° East 514 592 33,000  Level FlightAware ADS-B
Mon 02:44:31 PM 42.7270 -91.9050 110° East 516 594 33,000  Level FlightAware ADS-B
Mon 02:45:01 PM 42.7030 -91.8150 110° East 518 596 33,000  Level FlightAware ADS-B
Mon 02:45:35 PM 42.6770 -91.7150 109° East 519 597 33,000  Level FlightAware ADS-B
Mon 02:46:22 PM 42.6360 -91.5660 110° East 520 598 33,000  Level FlightAware ADS-B
Mon 02:47:02 PM 42.6030 -91.4430 110° East 521 600 33,000  Level FlightAware ADS-B
Mon 02:47:45 PM 42.5710 -91.3250 110° East 520 598 33,000  Level FlightAware ADS-B
Mon 02:48:25 PM 42.5340 -91.1890 110° East 520 598 33,000  Level FlightAware ADS-B
Mon 02:49:09 PM 42.4970 -91.0540 110° East 519 597 33,000  Level FlightAware ADS-B
Mon 02:49:53 PM 42.4600 -90.9210 111° Southeast 519 597 33,000  Level FlightAware ADS-B
Mon 02:50:35 PM 42.4250 -90.7930 110° East 518 596 33,000  Level FlightAware ADS-B
Mon 02:51:28 PM 42.3780 -90.6410 113° Southeast 517 595 33,000  Level FlightAware ADS-B
Mon 02:52:00 PM 42.3470 -90.5510 115° Southeast 516 594 33,000  Level FlightAware ADS-B
Mon 02:52:42 PM 42.3040 -90.4250 115° Southeast 516 594 33,000  Level FlightAware ADS-B
Mon 02:53:21 PM 42.2630 -90.3070 115° Southeast 517 595 33,000  Level FlightAware ADS-B
Mon 02:54:05 PM 42.2180 -90.1800 116° Southeast 519 597 33,000  Level FlightAware ADS-B
Mon 02:54:48 PM 42.1750 -90.0560 115° Southeast 521 600 33,000  Level FlightAware ADS-B
Mon 02:55:28 PM 42.1330 -89.9370 115° Southeast 523 602 33,000  Level FlightAware ADS-B
Mon 02:56:12 PM 42.0890 -89.8120 115° Southeast 524 603 33,000  Level FlightAware ADS-B
Mon 02:56:52 PM 42.0460 -89.6910 116° Southeast 524 603 33,000  Level FlightAware ADS-B
Mon 02:57:34 PM 42.0020 -89.5690 116° Southeast 525 604 33,000  Level FlightAware ADS-B
Mon 02:58:17 PM 41.9580 -89.4450 115° Southeast 524 603 33,000  Level FlightAware ADS-B
Mon 02:58:58 PM 41.9130 -89.3200 116° Southeast 525 604 33,000  Level FlightAware ADS-B
Mon 02:59:42 PM 41.8690 -89.1980 116° Southeast 524 603 33,000  Level FlightAware ADS-B
Mon 03:00:25 PM 41.8230 -89.0700 116° Southeast 523 602 33,000  Level FlightAware ADS-B
Mon 03:01:05 PM 41.7790 -88.9480 116° Southeast 522 601 33,000  Level FlightAware ADS-B
Mon 03:01:48 PM 41.7330 -88.8250 117° Southeast 521 600 33,000  Level FlightAware ADS-B
Mon 03:02:29 PM 41.6920 -88.7110 116° Southeast 522 601 33,000  Level FlightAware ADS-B
Mon 03:03:08 PM 41.6490 -88.5950 116° Southeast 523 602 33,000  Level FlightAware ADS-B
Mon 03:03:52 PM 41.6020 -88.4690 116° Southeast 514 592 33,000  Level FlightAware ADS-B
Mon 03:04:32 PM 41.5600 -88.3530 116° Southeast 515 593 33,000  Level FlightAware ADS-B
Mon 03:05:18 PM 41.5240 -88.2130 109° East 524 603 33,000  Level FlightAware ADS-B
Mon 03:05:59 PM 41.4970 -88.0910 106° East 524 603 33,000  Level FlightAware ADS-B
Mon 03:06:38 PM 41.4700 -87.9640 106° East 525 604 33,000  Level FlightAware ADS-B
Mon 03:07:16 PM 41.4440 -87.8450 106° East 526 605 33,000  Level FlightAware ADS-B
Mon 03:08:03 PM 41.4160 -87.7160 106° East 525 604 33,000  Level FlightAware ADS-B
Mon 03:08:47 PM 41.3820 -87.5650 107° East 525 604 33,000  Level FlightAware ADS-B
Mon 03:09:14 PM 41.3640 -87.4820 106° East 525 604 33,000  Level FlightAware ADS-B
Mon 03:09:56 PM 41.3350 -87.3550 107° East 524 603 33,000 -558 Level FlightAware ADS-B
Mon 03:10:40 PM 41.3050 -87.2180 106° East 516 594 32,200 -990 Descending FlightAware ADS-B
Mon 03:11:39 PM 41.2650 -87.0410 107° East 507 583 31,300 -720 Descending FlightAware ADS-B
Mon 03:12:20 PM 41.2390 -86.9260 107° East 504 580 31,000 -220 Descending FlightAware ADS-B
Mon 03:13:01 PM 41.2090 -86.7970 107° East 503 579 31,000  Level FlightAware ADS-B
Mon 03:13:43 PM 41.1810 -86.6740 107° East 507 583 31,000  Level FlightAware ADS-B
Mon 03:14:20 PM 41.1560 -86.5660 107° East 510 587 31,000  Level FlightAware ADS-B
Mon 03:15:10 PM 41.1200 -86.4130 107° East 515 593 31,000  Level FlightAware ADS-B
Mon 03:15:51 PM 41.0920 -86.2940 107° East 514 592 31,000  Level FlightAware ADS-B
Mon 03:16:33 PM 41.0630 -86.1690 107° East 513 590 31,000  Level FlightAware ADS-B
Mon 03:17:15 PM 41.0320 -86.0380 107° East 512 589 31,000  Level FlightAware ADS-B
Mon 03:17:58 PM 41.0010 -85.9080 107° East 510 587 31,000  Level FlightAware ADS-B
Mon 03:18:40 PM 40.9720 -85.7860 107° East 509 586 31,000  Level FlightAware ADS-B
Mon 03:19:18 PM 40.9450 -85.6730 108° East 508 585 31,000  Level FlightAware ADS-B
Mon 03:20:04 PM 40.9130 -85.5400 108° East 507 583 31,000  Level FlightAware ADS-B
Mon 03:20:46 PM 40.8820 -85.4140 108° East 507 583 31,000  Level FlightAware ADS-B
Mon 03:21:28 PM 40.8520 -85.2910 108° East 507 583 31,000  Level FlightAware ADS-B
Mon 03:22:07 PM 40.8250 -85.1800 108° East 507 583 31,000  Level FlightAware ADS-B
Mon 03:22:48 PM 40.7940 -85.0550 108° East 508 585 31,000  Level FlightAware ADS-B
Mon 03:23:34 PM 40.7610 -84.9200 108° East 509 586 31,000  Level FlightAware ADS-B
Mon 03:24:17 PM 40.7290 -84.7940 108° East 511 588 31,000  Level FlightAware ADS-B
Mon 03:24:58 PM 40.6990 -84.6730 108° East 512 589 31,000  Level FlightAware ADS-B
Mon 03:25:38 PM 40.6680 -84.5530 109° East 515 593 31,000  Level FlightAware ADS-B
Mon 03:26:24 PM 40.6350 -84.4200 108° East 517 595 31,000  Level FlightAware ADS-B
Mon 03:27:05 PM 40.6020 -84.2930 109° East 519 597 31,000  Level FlightAware ADS-B
Mon 03:27:47 PM 40.5700 -84.1670 108° East 519 597 31,000  Level FlightAware ADS-B
Mon 03:28:30 PM 40.5370 -84.0410 109° East 520 598 31,000  Level FlightAware ADS-B
Mon 03:29:09 PM 40.5070 -83.9230 108° East 517 595 31,000  Level FlightAware ADS-B
Mon 03:29:49 PM 40.4760 -83.8040 109° East 514 592 31,000  Level FlightAware ADS-B
Mon 03:30:35 PM 40.4410 -83.6690 109° East 515 593 31,000  Level FlightAware ADS-B
Mon 03:31:17 PM 40.4080 -83.5450 109° East 518 596 31,000  Level FlightAware ADS-B
Mon 03:31:57 PM 40.3770 -83.4270 109° East 518 596 31,000  Level FlightAware ADS-B
Mon 03:32:28 PM 40.3530 -83.3370 109° East 519 597 31,000  Level FlightAware ADS-B
Mon 03:33:08 PM 40.3300 -83.2130 104° East 524 603 31,000  Level FlightAware ADS-B
Mon 03:33:47 PM 40.3160 -83.0950 99° East 523 602 31,000  Level FlightAware ADS-B
Mon 03:34:31 PM 40.2990 -82.9510 99° East 523 602 31,000  Level FlightAware ADS-B
Mon 03:35:10 PM 40.2850 -82.8390 99° East 522 601 31,000  Level FlightAware ADS-B
Mon 03:35:51 PM 40.2690 -82.7090 99° East 522 601 31,000  Level FlightAware ADS-B
Mon 03:36:38 PM 40.2500 -82.5610 100° East 522 601 31,000  Level FlightAware ADS-B
Mon 03:37:20 PM 40.2340 -82.4310 99° East 525 604 31,000  Level FlightAware ADS-B
Mon 03:38:02 PM 40.2170 -82.2980 99° East 526 605 31,000  Level FlightAware ADS-B
Mon 03:38:41 PM 40.2010 -82.1760 100° East 527 606 31,000  Level FlightAware ADS-B
Mon 03:39:24 PM 40.1830 -82.0390 100° East 527 606 31,000  Level FlightAware ADS-B
Mon 03:40:08 PM 40.1650 -81.8980 99° East 525 604 31,000  Level FlightAware ADS-B
Mon 03:40:49 PM 40.1490 -81.7760 100° East 526 605 31,000  Level FlightAware ADS-B
Mon 03:41:29 PM 40.1320 -81.6560 100° East 527 606 31,000  Level FlightAware ADS-B
Mon 03:42:11 PM 40.1140 -81.5170 100° East 524 603 31,000  Level FlightAware ADS-B
Mon 03:42:50 PM 40.0970 -81.3960 100° East 527 606 31,000  Level FlightAware ADS-B
Mon 03:43:38 PM 40.0760 -81.2440 100° East 526 605 31,000  Level FlightAware ADS-B
Mon 03:44:18 PM 40.0590 -81.1180 100° East 525 604 31,000  Level FlightAware ADS-B
Mon 03:44:48 PM 40.0460 -81.0250 100° East 525 604 31,000  Level FlightAware ADS-B
Mon 03:45:29 PM 40.0280 -80.9000 101° East 527 606 31,000  Level FlightAware ADS-B
Mon 03:46:12 PM 39.9940 -80.7710 109° East 533 613 31,000  Level FlightAware ADS-B
Mon 03:46:54 PM 39.9450 -80.6490 118° Southeast 536 617 31,000  Level FlightAware ADS-B
Mon 03:47:34 PM 39.9070 -80.5510 117° Southeast 536 617 31,000  Level FlightAware ADS-B
Mon 03:48:21 PM 39.8620 -80.4360 117° Southeast 536 617 31,000  Level FlightAware ADS-B
Mon 03:48:59 PM 39.8250 -80.3430 117° Southeast 536 617 31,000 -963 Level FlightAware ADS-B
Mon 03:49:42 PM 39.7570 -80.1740 118° Southeast 507 583 29,700 -1,341 Descending FlightAware ADS-B
Mon 03:50:24 PM 39.7110 -80.0600 118° Southeast 524 603 29,100 -975 Descending FlightAware ADS-B
Mon 03:51:02 PM 39.6680 -79.9520 117° Southeast 520 598 28,400 -1,000 Descending FlightAware ADS-B
Mon 03:51:48 PM 39.6180 -79.8270 117° Southeast 512 589 27,700 -951 Descending FlightAware ADS-B
Mon 03:52:24 PM 39.5790 -79.7310 118° Southeast 509 586 27,100 -583 Descending FlightAware ADS-B
Mon 03:53:00 PM 39.5390 -79.6330 118° Southeast 508 585 27,000 -71 Descending FlightAware ADS-B
Mon 03:53:48 PM 39.4930 -79.5000 114° Southeast 512 589 27,000 -955 Level FlightAware ADS-B
Mon 03:54:28 PM 39.4700 -79.3810 104° East 509 586 25,600 -2,132 Descending FlightAware ADS-B
Mon 03:55:04 PM 39.4510 -79.2780 103° East 502 578 24,300 -1,674 Descending FlightAware ADS-B
Mon 03:55:54 PM 39.4260 -79.1370 103° East 468 539 23,200 -1,463 Descending FlightAware ADS-B
Mon 03:56:26 PM 39.4110 -79.0520 103° East 441 507 22,300 -2,813 Descending FlightAware ADS-B
Mon 03:56:58 PM 39.3960 -78.9690 103° East 447 514 20,200 -2,914 Descending FlightAware ADS-B
Mon 03:57:36 PM 39.3790 -78.8730 103° East 435 501 18,900 -2,024 Descending FlightAware ADS-B
Mon 03:58:21 PM 39.3600 -78.7620 102° East 424 488 17,400 -1,977 Descending FlightAware ADS-B
Mon 03:59:04 PM 39.3400 -78.6580 104° East 414 476 16,000 -2,024 Descending FlightAware ADS-B
Mon 03:59:44 PM 39.3220 -78.5610 103° East 400 460 14,600 -1,913 Descending FlightAware ADS-B
Mon 04:00:13 PM 39.3120 -78.5040 103° East 388 447 13,800 -1,750 Descending FlightAware ADS-B
Mon 04:00:56 PM 39.2940 -78.4020 103° East 370 426 12,500 -1,829 Descending FlightAware ADS-B
Mon 04:01:35 PM 39.2640 -78.3230 116° Southeast 361 415 11,300 -1,139 Descending FlightAware ADS-B
Mon 04:02:15 PM 39.2310 -78.2600 124° Southeast 329 379 11,000 -947 Descending FlightAware ADS-B
Mon 04:02:51 PM 39.2000 -78.2020 125° Southeast 322 371 10,100 -1,400 Descending FlightAware ADS-B
Mon 04:03:15 PM 39.1780 -78.1610 125° Southeast 309 356 9,600 -1,154 Descending FlightAware ADS-B
Mon 04:03:43 PM 39.1590 -78.1250 124° Southeast 303 349 9,100 -1,350 Descending FlightAware ADS-B
Mon 04:03:55 PM 39.1490 -78.1060 124° Southeast 300 345 8,700 -1,857 Descending FlightAware ADS-B
Mon 04:04:25 PM 39.1250 -78.0600 124° Southeast 301 346 7,800 -1,660 Descending FlightAware ADS-B
Mon 04:04:42 PM 39.1120 -78.0350 124° Southeast 300 345 7,400 -1,171 Descending FlightAware ADS-B
Mon 04:05:06 PM 39.0950 -78.0040 125° Southeast 295 339 7,000 -1,125 Descending FlightAware ADS-B
Mon 04:05:30 PM 39.0740 -77.9620 123° Southeast 295 339 6,500 -1,231 Descending FlightAware ADS-B
Mon 04:05:45 PM 39.0640 -77.9440 126° Southeast 294 338 6,200 -652 Descending FlightAware ADS-B
Mon 04:06:16 PM 39.0400 -77.8980 124° Southeast 289 333 6,000 -267 Descending FlightAware ADS-B
Mon 04:06:30 PM 39.0280 -77.8760 125° Southeast 288 331 6,000  Level FlightAware ADS-B
Mon 04:07:00 PM 39.0060 -77.8340 124° Southeast 285 328 6,000  Level FlightAware ADS-B
Mon 04:07:26 PM 38.9860 -77.7990 126° Southeast 286 329 6,000  Level FlightAware ADS-B
Mon 04:07:55 PM 38.9720 -77.7710 123° Southeast 286 329 6,000  Level FlightAware ADS-B
Mon 04:08:10 PM 38.9620 -77.7300 107° East 289 333 6,000  Level FlightAware ADS-B
Mon 04:08:36 PM 38.9580 -77.6880 97° East 291 335 6,000  Level FlightAware ADS-B
Mon 04:08:51 PM 38.9560 -77.6650 96° East 289 333 6,000  Level FlightAware ADS-B
Mon 04:09:21 PM 38.9400 -77.6210 115° Southeast 260 299 6,000  Level FlightAware ADS-B
Mon 04:09:30 PM 38.9280 -77.6110 147° Southeast 255 293 6,000  Level FlightAware ADS-B
Mon 04:09:45 PM 38.9120 -77.6030 159° South 255 293 6,000  Level FlightAware ADS-B
Mon 04:10:15 PM 38.8790 -77.5860 158° South 252 290 6,000 -109 Level FlightAware ADS-B
Mon 04:10:40 PM 38.8530 -77.5750 162° South 223 257 5,900 -857 Descending FlightAware ADS-B
Mon 04:11:25 PM 38.8090 -77.5640 169° South 217 250 5,000 -1,200 Descending FlightAware ADS-B
Mon 04:11:40 PM 38.8020 -77.5490 121° Southeast 214 246 4,700 -1,130 Descending FlightAware ADS-B
Mon 04:12:34 PM 38.8270 -77.5030 55° Northeast 195 224 3,700 -1,185 Descending FlightAware ADS-B
Mon 04:13:01 PM 38.8460 -77.4790 45° Northeast 188 216 3,100 -1,350 Descending FlightAware ADS-B
Mon 04:13:14 PM 38.8520 -77.4730 38° Northeast 182 209 2,800 -2,483 Descending FlightAware ADS-B
Mon 04:13:30 PM 38.8700 -77.4610 27° Northeast 196 226 1,900 -2,333 Descending FlightAware ADS-B
Mon 04:13:50 PM 38.8833 -77.4667 27° Northeast 201 231 1,400 -1,500 Descending Potomac TRACON
Mon 04:15:00 PM 38.9333 -77.4500 159° South  Level FlightAware Approximate
Mon 04:22:00 PM 38.9474 -77.4599 159° South  Level Estimated
Mon 04:23:00 PM 38.9474 -77.4599 159° South  Level Estimated
Mon 04:24:00 PM 38.9474 -77.4599 159° South  Level Estimated
Mon 04:25:00 PM 38.9474 -77.4599 159° South  Level Estimated

Login

Don't have an account? Register now (free) for customized features, flight alerts, and more!